Time;durP1;ratioP1;P1;durP2;ratioP2;P2;SDS_P1;SDS_P2;PMS_P1;PMS_P2;Temp;Humidity;BMP_temperature;BMP_pressure;BME280_temperature;BME280_humidity;BME280_pressure;Samples;Min_cycle;Max_cycle;Signal;HPM_P1;HPM_P2
2022/04/09 00:01:38;;;;;;;20.63;10.20;;;;;;;;;;7378986;19;20986;-83
2022/04/09 00:04:03;;;;;;;21.50;11.25;;;;;;;;;;7375463;19;20029;-84
2022/04/09 00:06:30;;;;;;;32.08;13.85;;;;;;;;;;7375286;19;20394;-89
2022/04/09 00:08:55;;;;;;;28.30;11.00;;;;;;;;;;7354915;19;20014;-86
2022/04/09 00:11:21;;;;;;;23.48;11.50;;;;;;;;;;7379511;19;20078;-85
2022/04/09 00:13:46;;;;;;;26.98;12.75;;;;;;;;;;7382049;19;20010;-84
2022/04/09 00:16:11;;;;;;;19.05;10.85;;;;;;;;;;7377128;19;20048;-84
2022/04/09 00:18:37;;;;;;;24.60;10.88;;;;;;;;;;7382617;19;20339;-82
2022/04/09 00:21:03;;;;;;;27.90;11.38;;;;;;;;;;7382082;19;20018;-85
2022/04/09 00:23:28;;;;;;;28.27;9.93;;;;;;;;;;7370789;19;20764;-84
2022/04/09 00:25:53;;;;;;;26.87;10.43;;;;;;;;;;7379397;19;20495;-87
2022/04/09 00:28:18;;;;;;;24.48;11.13;;;;;;;;;;7374330;19;20295;-86
2022/04/09 00:30:43;;;;;;;21.10;10.60;;;;;;;;;;7374931;19;20094;-87
2022/04/09 00:33:09;;;;;;;21.85;11.73;;;;;;;;;;7373587;19;20495;-85
2022/04/09 00:35:34;;;;;;;23.77;10.60;;;;;;;;;;7375048;19;20030;-86
2022/04/09 00:37:59;;;;;;;21.88;11.32;;;;;;;;;;7370750;19;20022;-87
2022/04/09 00:40:25;;;;;;;22.30;9.40;;;;;;;;;;7378494;19;20011;-86
2022/04/09 00:42:50;;;;;;;20.17;10.60;;;;;;;;;;7375501;19;20710;-85
2022/04/09 00:45:16;;;;;;;26.75;10.90;;;;;;;;;;7371950;19;20007;-85
2022/04/09 00:47:41;;;;;;;21.95;10.35;;;;;;;;;;7370863;19;19999;-87
2022/04/09 00:50:07;;;;;;;21.20;10.90;;;;;;;;;;7373973;19;20020;-87
2022/04/09 00:52:34;;;;;;;26.70;10.75;;;;;;;;;;7371130;19;20022;-87
2022/04/09 00:55:02;;;;;;;30.58;11.48;;;;;;;;;;7377121;19;20037;-84
2022/04/09 00:57:27;;;;;;;30.85;11.77;;;;;;;;;;7373944;19;20376;-84
2022/04/09 00:59:54;;;;;;;22.05;10.48;;;;;;;;;;7374581;19;20030;-85
2022/04/09 01:02:19;;;;;;;33.22;13.18;;;;;;;;;;7370524;19;20344;-85
2022/04/09 01:04:46;;;;;;;25.15;11.07;;;;;;;;;;7377070;19;20002;-85
2022/04/09 01:07:12;;;;;;;30.60;13.38;;;;;;;;;;7369168;19;20227;-88
2022/04/09 01:09:37;;;;;;;25.83;11.75;;;;;;;;;;7375186;19;20022;-85
2022/04/09 01:12:03;;;;;;;27.40;12.05;;;;;;;;;;7374198;19;20046;-84
2022/04/09 01:14:28;;;;;;;28.13;10.90;;;;;;;;;;7374395;19;20026;-85
2022/04/09 01:16:54;;;;;;;26.98;11.88;;;;;;;;;;7377237;19;20002;-84
2022/04/09 01:19:20;;;;;;;25.05;11.15;;;;;;;;;;7380971;19;20115;-85
2022/04/09 01:21:47;;;;;;;25.83;10.70;;;;;;;;;;7378148;19;20433;-85
2022/04/09 01:24:12;;;;;;;27.95;13.05;;;;;;;;;;7381541;19;20343;-85
2022/04/09 01:26:37;;;;;;;21.35;10.45;;;;;;;;;;7381667;19;20102;-84
2022/04/09 01:29:02;;;;;;;29.70;10.98;;;;;;;;;;7383605;19;20030;-84
2022/04/09 01:31:28;;;;;;;19.70;9.02;;;;;;;;;;7379746;19;20260;-86
2022/04/09 01:33:53;;;;;;;22.13;9.43;;;;;;;;;;7383439;19;20014;-85
2022/04/09 01:36:18;;;;;;;22.98;9.52;;;;;;;;;;7383727;19;20010;-87
2022/04/09 01:38:43;;;;;;;22.48;9.93;;;;;;;;;;7379895;19;20009;-87
2022/04/09 01:41:09;;;;;;;18.02;9.48;;;;;;;;;;7381187;19;20006;-84
2022/04/09 01:43:34;;;;;;;25.08;10.27;;;;;;;;;;7382508;19;20086;-85
2022/04/09 01:45:59;;;;;;;29.73;10.63;;;;;;;;;;7377118;19;20387;-84
2022/04/09 01:48:25;;;;;;;23.63;9.50;;;;;;;;;;7379366;19;20672;-86
2022/04/09 01:50:50;;;;;;;30.35;10.93;;;;;;;;;;7378383;19;20006;-83
2022/04/09 01:53:15;;;;;;;22.67;10.77;;;;;;;;;;7378053;19;20010;-83
2022/04/09 01:55:41;;;;;;;27.20;10.68;;;;;;;;;;7382790;19;20050;-86
2022/04/09 01:58:06;;;;;;;25.23;9.93;;;;;;;;;;7379119;19;20104;-86
2022/04/09 02:00:31;;;;;;;32.20;10.77;;;;;;;;;;7378301;19;20018;-86
2022/04/09 02:02:56;;;;;;;31.67;9.52;;;;;;;;;;7382182;19;20046;-82
2022/04/09 02:05:22;;;;;;;27.85;9.85;;;;;;;;;;7381723;19;20639;-86
2022/04/09 02:07:47;;;;;;;31.98;10.65;;;;;;;;;;7376920;19;20040;-85
2022/04/09 02:10:13;;;;;;;41.92;11.25;;;;;;;;;;7383454;19;20485;-84
2022/04/09 02:12:38;;;;;;;21.73;10.13;;;;;;;;;;7380830;19;20003;-88
2022/04/09 02:15:04;;;;;;;31.87;10.47;;;;;;;;;;7379802;19;19995;-88
2022/04/09 02:17:30;;;;;;;30.48;12.43;;;;;;;;;;7380982;19;20351;-83
2022/04/09 02:19:55;;;;;;;27.55;11.15;;;;;;;;;;7382978;19;20101;-83
2022/04/09 02:22:20;;;;;;;39.22;13.15;;;;;;;;;;7373804;19;20031;-84
2022/04/09 02:24:46;;;;;;;27.65;11.25;;;;;;;;;;7378942;19;20456;-84
2022/04/09 02:27:11;;;;;;;32.78;13.05;;;;;;;;;;7381397;19;20037;-84
2022/04/09 02:29:37;;;;;;;33.70;12.52;;;;;;;;;;7380109;19;20074;-83
2022/04/09 02:32:02;;;;;;;30.63;11.43;;;;;;;;;;7376442;19;20011;-84
2022/04/09 02:34:28;;;;;;;34.10;12.30;;;;;;;;;;7380754;19;20482;-84
2022/04/09 02:36:53;;;;;;;36.40;11.82;;;;;;;;;;7372168;19;20384;-85
2022/04/09 02:39:21;;;;;;;23.00;10.80;;;;;;;;;;7376035;19;20018;-84
2022/04/09 02:41:46;;;;;;;33.25;12.20;;;;;;;;;;7377901;19;20776;-84
2022/04/09 02:44:12;;;;;;;37.28;13.18;;;;;;;;;;7377868;19;20019;-83
2022/04/09 02:46:38;;;;;;;27.20;13.02;;;;;;;;;;7381549;19;20121;-83
2022/04/09 02:49:04;;;;;;;27.23;12.30;;;;;;;;;;7375557;19;20018;-87
2022/04/09 02:51:29;;;;;;;29.00;13.93;;;;;;;;;;7378092;19;20111;-87
2022/04/09 02:53:54;;;;;;;29.00;13.25;;;;;;;;;;7385269;19;20006;-83
2022/04/09 02:56:19;;;;;;;37.83;13.30;;;;;;;;;;7389094;19;20015;-85
2022/04/09 02:58:45;;;;;;;38.33;14.05;;;;;;;;;;7388202;19;20014;-86
2022/04/09 03:01:10;;;;;;;28.92;12.90;;;;;;;;;;7382964;19;20010;-84
2022/04/09 03:03:35;;;;;;;32.95;13.80;;;;;;;;;;7388267;19;20587;-82
2022/04/09 03:06:00;;;;;;;41.03;12.60;;;;;;;;;;7386723;19;20126;-83
2022/04/09 03:08:26;;;;;;;35.55;11.13;;;;;;;;;;7384379;19;20009;-83
2022/04/09 03:10:51;;;;;;;45.65;15.50;;;;;;;;;;7384342;19;20007;-83
2022/04/09 03:13:16;;;;;;;38.28;12.75;;;;;;;;;;7382130;19;20392;-86
2022/04/09 03:15:42;;;;;;;26.30;10.32;;;;;;;;;;7386147;19;20739;-84
2022/04/09 03:18:09;;;;;;;28.88;10.90;;;;;;;;;;7388104;19;19998;-82
2022/04/09 03:20:34;;;;;;;33.72;11.13;;;;;;;;;;7388035;19;20011;-82
2022/04/09 03:22:59;;;;;;;38.83;11.75;;;;;;;;;;7378759;19;20014;-85
2022/04/09 03:25:24;;;;;;;26.05;11.18;;;;;;;;;;7385797;19;20510;-82
2022/04/09 03:27:49;;;;;;;29.38;12.45;;;;;;;;;;7385554;19;20014;-83
2022/04/09 03:30:15;;;;;;;39.47;12.43;;;;;;;;;;7384959;19;20002;-82
2022/04/09 03:32:40;;;;;;;26.08;11.07;;;;;;;;;;7382141;19;19999;-83
2022/04/09 03:35:06;;;;;;;37.88;12.30;;;;;;;;;;7383952;19;20747;-83
2022/04/09 03:37:35;;;;;;;31.10;12.65;;;;;;;;;;7379004;19;20146;-87
2022/04/09 03:40:01;;;;;;;28.80;9.77;;;;;;;;;;7386752;19;20500;-83
2022/04/09 03:42:26;;;;;;;29.02;10.18;;;;;;;;;;7384505;19;20002;-85
2022/04/09 03:44:52;;;;;;;36.38;11.77;;;;;;;;;;7380567;19;20026;-85
2022/04/09 03:47:17;;;;;;;29.13;10.05;;;;;;;;;;7385367;19;20083;-85
2022/04/09 03:49:42;;;;;;;22.23;10.00;;;;;;;;;;7386213;19;20022;-84
2022/04/09 03:52:07;;;;;;;31.25;10.93;;;;;;;;;;7382381;19;20555;-82
2022/04/09 03:54:35;;;;;;;34.65;10.85;;;;;;;;;;7386530;19;19999;-83
2022/04/09 03:57:00;;;;;;;27.40;10.57;;;;;;;;;;7384666;19;20070;-85
2022/04/09 03:59:26;;;;;;;42.83;10.77;;;;;;;;;;7387473;19;20060;-82
2022/04/09 04:01:52;;;;;;;35.83;10.40;;;;;;;;;;7381724;19;20081;-82
2022/04/09 04:04:17;;;;;;;29.65;11.20;;;;;;;;;;7385708;19;20376;-82
2022/04/09 04:06:42;;;;;;;25.95;10.07;;;;;;;;;;7382309;19;20030;-82
2022/04/09 04:09:07;;;;;;;34.47;12.18;;;;;;;;;;7382704;19;20018;-88
2022/04/09 04:11:33;;;;;;;32.70;11.00;;;;;;;;;;7374793;19;20343;-85
2022/04/09 04:13:58;;;;;;;32.40;12.45;;;;;;;;;;7385395;19;20002;-83
2022/04/09 04:16:24;;;;;;;25.30;11.15;;;;;;;;;;7382855;19;20507;-83
2022/04/09 04:18:49;;;;;;;36.13;12.40;;;;;;;;;;7379211;19;19998;-83
2022/04/09 04:21:14;;;;;;;31.45;12.63;;;;;;;;;;7381873;19;19998;-83
2022/04/09 04:23:39;;;;;;;35.25;12.15;;;;;;;;;;7380820;19;20011;-87
2022/04/09 04:26:04;;;;;;;46.42;14.70;;;;;;;;;;7383312;19;20006;-83
2022/04/09 04:28:29;;;;;;;34.28;12.90;;;;;;;;;;7385796;19;20908;-87
2022/04/09 04:30:55;;;;;;;31.23;12.05;;;;;;;;;;7380457;19;20236;-83
2022/04/09 04:33:20;;;;;;;30.85;11.45;;;;;;;;;;7375906;19;20399;-84
2022/04/09 04:35:45;;;;;;;44.42;11.77;;;;;;;;;;7378043;19;20018;-87
2022/04/09 04:38:11;;;;;;;36.53;11.13;;;;;;;;;;7378210;19;19995;-84
2022/04/09 04:40:36;;;;;;;32.03;13.55;;;;;;;;;;7383158;19;20006;-85
2022/04/09 04:43:01;;;;;;;30.83;11.30;;;;;;;;;;7381853;19;20010;-83
2022/04/09 04:45:26;;;;;;;30.77;11.93;;;;;;;;;;7380228;19;20013;-89
2022/04/09 04:47:52;;;;;;;53.05;11.85;;;;;;;;;;7382028;19;20017;-83
2022/04/09 04:50:18;;;;;;;37.60;10.65;;;;;;;;;;7385940;19;19998;-84
2022/04/09 04:52:43;;;;;;;29.95;10.80;;;;;;;;;;7381216;19;20522;-83
2022/04/09 04:55:09;;;;;;;34.78;10.68;;;;;;;;;;7385522;19;19995;-86
2022/04/09 04:57:44;;;;;;;34.28;10.80;;;;;;;;;;7381777;19;20013;-84
2022/04/09 05:00:10;;;;;;;30.88;10.40;;;;;;;;;;7385458;19;20002;-84
2022/04/09 05:02:35;;;;;;;36.72;11.45;;;;;;;;;;7381809;19;20015;-84
2022/04/09 05:05:01;;;;;;;36.80;12.77;;;;;;;;;;7384830;19;20029;-84
2022/04/09 05:07:35;;;;;;;42.20;12.10;;;;;;;;;;7375739;19;20006;-86
2022/04/09 05:10:03;;;;;;;40.33;11.02;;;;;;;;;;7377603;19;20776;-89
2022/04/09 05:12:28;;;;;;;45.13;11.13;;;;;;;;;;7376407;19;20023;-84
2022/04/09 05:14:53;;;;;;;31.33;10.10;;;;;;;;;;7377785;19;20066;-86
2022/04/09 05:17:18;;;;;;;36.97;11.32;;;;;;;;;;7375390;19;20272;-84
2022/04/09 05:19:43;;;;;;;30.05;11.05;;;;;;;;;;7384197;19;20042;-86
2022/04/09 05:22:09;;;;;;;39.55;11.35;;;;;;;;;;7374982;19;20272;-83
2022/04/09 05:24:34;;;;;;;32.55;10.85;;;;;;;;;;7381141;19;20715;-85
2022/04/09 05:26:59;;;;;;;32.60;11.32;;;;;;;;;;7380514;19;20011;-86
2022/04/09 05:29:24;;;;;;;31.80;11.40;;;;;;;;;;7380151;19;19998;-86
2022/04/09 05:31:50;;;;;;;39.28;11.27;;;;;;;;;;7375592;19;20618;-83
2022/04/09 05:34:15;;;;;;;38.35;11.93;;;;;;;;;;7376785;19;20013;-84
2022/04/09 05:36:41;;;;;;;37.22;12.15;;;;;;;;;;7376016;19;20018;-86
2022/04/09 05:39:06;;;;;;;32.22;10.70;;;;;;;;;;7381871;19;20305;-83
2022/04/09 05:41:31;;;;;;;38.85;11.77;;;;;;;;;;7382241;19;20010;-89
2022/04/09 05:43:56;;;;;;;39.53;10.93;;;;;;;;;;7371199;19;20094;-87
2022/04/09 05:46:23;;;;;;;30.95;11.23;;;;;;;;;;7376546;19;20295;-84
2022/04/09 05:48:48;;;;;;;28.65;10.80;;;;;;;;;;7376747;19;20470;-87
2022/04/09 05:51:13;;;;;;;27.35;10.15;;;;;;;;;;7371081;19;20046;-83
2022/04/09 05:53:38;;;;;;;39.88;11.13;;;;;;;;;;7369863;19;20013;-85
2022/04/09 05:56:04;;;;;;;31.13;11.27;;;;;;;;;;7379250;19;20018;-84
2022/04/09 05:58:31;;;;;;;39.08;11.65;;;;;;;;;;7380389;19;20335;-85
2022/04/09 06:00:58;;;;;;;30.05;12.10;;;;;;;;;;7373019;19;20022;-84
2022/04/09 06:03:23;;;;;;;33.55;10.32;;;;;;;;;;7380011;19;20003;-84
2022/04/09 06:05:48;;;;;;;38.05;11.85;;;;;;;;;;7376025;19;20063;-85
2022/04/09 06:08:13;;;;;;;34.95;11.45;;;;;;;;;;7372490;19;20006;-84
2022/04/09 06:10:39;;;;;;;53.45;11.55;;;;;;;;;;7373285;19;20035;-85
2022/04/09 06:13:04;;;;;;;32.85;11.65;;;;;;;;;;7379134;19;20354;-87
2022/04/09 06:15:29;;;;;;;41.03;11.30;;;;;;;;;;7379678;19;20001;-85
2022/04/09 06:17:54;;;;;;;30.92;11.50;;;;;;;;;;7379110;19;20014;-86
2022/04/09 06:20:19;;;;;;;35.75;11.68;;;;;;;;;;7378013;19;20557;-84
2022/04/09 06:22:45;;;;;;;50.40;12.88;;;;;;;;;;7373504;19;20014;-84
2022/04/09 06:25:10;;;;;;;30.98;10.93;;;;;;;;;;7365283;19;20018;-84
2022/04/09 06:27:39;;;;;;;35.15;11.98;;;;;;;;;;7376266;19;20005;-80
2022/04/09 06:30:05;;;;;;;29.50;11.02;;;;;;;;;;7384273;19;20532;-86
2022/04/09 06:32:30;;;;;;;38.30;11.52;;;;;;;;;;7385788;19;20609;-85
2022/04/09 06:34:55;;;;;;;32.08;10.65;;;;;;;;;;7389313;19;20003;-88
2022/04/09 06:37:21;;;;;;;35.05;11.50;;;;;;;;;;7374489;19;20462;-90
2022/04/09 06:39:46;;;;;;;34.60;11.35;;;;;;;;;;7386179;19;20102;-87
2022/04/09 06:42:11;;;;;;;30.48;10.30;;;;;;;;;;7383830;19;20006;-86
2022/04/09 06:44:36;;;;;;;40.55;13.30;;;;;;;;;;7383009;19;20078;-87
2022/04/09 06:47:01;;;;;;;32.58;11.20;;;;;;;;;;7384179;19;20018;-88
2022/04/09 06:49:27;;;;;;;32.00;11.52;;;;;;;;;;7380612;19;20684;-85
2022/04/09 06:51:52;;;;;;;47.67;11.68;;;;;;;;;;7378693;19;20479;-88
2022/04/09 06:54:18;;;;;;;32.50;11.00;;;;;;;;;;7388016;19;20019;-86
2022/04/09 06:56:44;;;;;;;30.35;10.38;;;;;;;;;;7376234;19;20017;-83
2022/04/09 06:59:09;;;;;;;36.78;12.07;;;;;;;;;;7358447;19;20332;-88
2022/04/09 07:01:34;;;;;;;35.80;11.60;;;;;;;;;;7384277;19;20010;-86
2022/04/09 07:04:00;;;;;;;27.73;11.30;;;;;;;;;;7384921;19;20007;-86
2022/04/09 07:06:26;;;;;;;34.05;12.70;;;;;;;;;;7386218;19;19999;-87
2022/04/09 07:08:51;;;;;;;33.15;10.82;;;;;;;;;;7384199;19;20013;-86
2022/04/09 07:11:16;;;;;;;34.63;10.93;;;;;;;;;;7386269;19;20031;-86
2022/04/09 07:13:41;;;;;;;34.88;11.75;;;;;;;;;;7386371;19;20587;-87
2022/04/09 07:16:07;;;;;;;26.00;10.55;;;;;;;;;;7388682;19;20019;-86
2022/04/09 07:18:32;;;;;;;27.95;12.32;;;;;;;;;;7387871;19;20029;-85
2022/04/09 07:20:57;;;;;;;28.70;11.85;;;;;;;;;;7388479;19;20006;-87
2022/04/09 07:23:22;;;;;;;27.67;10.68;;;;;;;;;;7383708;19;20458;-89
2022/04/09 07:25:48;;;;;;;40.47;11.45;;;;;;;;;;7387988;19;20018;-90
2022/04/09 07:28:13;;;;;;;34.17;10.85;;;;;;;;;;7387071;19;20446;-86
2022/04/09 07:30:41;;;;;;;20.70;11.05;;;;;;;;;;7384782;19;20077;-89
2022/04/09 07:33:06;;;;;;;29.23;10.65;;;;;;;;;;7383858;19;20015;-85
2022/04/09 07:35:32;;;;;;;34.17;10.25;;;;;;;;;;7388553;19;20087;-86
2022/04/09 07:38:00;;;;;;;27.15;9.15;;;;;;;;;;7382906;19;20011;-87
2022/04/09 07:40:27;;;;;;;36.80;11.18;;;;;;;;;;7389560;19;20026;-85
2022/04/09 07:42:53;;;;;;;29.63;10.00;;;;;;;;;;7389383;19;20351;-85
2022/04/09 07:45:18;;;;;;;24.38;11.00;;;;;;;;;;7389631;19;20019;-92
2022/04/09 07:47:44;;;;;;;32.28;10.77;;;;;;;;;;7385327;19;19994;-85
2022/04/09 07:50:10;;;;;;;28.00;9.70;;;;;;;;;;7386861;19;20081;-87
2022/04/09 07:52:40;;;;;;;27.45;10.15;;;;;;;;;;7386049;19;20564;-86
2022/04/09 07:55:06;;;;;;;26.20;9.40;;;;;;;;;;7389044;19;20462;-86
2022/04/09 07:57:31;;;;;;;27.55;9.07;;;;;;;;;;7387799;19;20605;-88
2022/04/09 07:59:58;;;;;;;35.90;10.82;;;;;;;;;;7389293;19;20011;-88
2022/04/09 08:02:23;;;;;;;27.23;9.18;;;;;;;;;;7383284;19;20019;-86
2022/04/09 08:04:48;;;;;;;26.67;8.43;;;;;;;;;;7388139;19;20011;-85
2022/04/09 08:07:13;;;;;;;31.90;8.32;;;;;;;;;;7382189;19;20014;-87
2022/04/09 08:09:39;;;;;;;24.90;9.05;;;;;;;;;;7388173;19;20014;-88
2022/04/09 08:12:04;;;;;;;29.90;8.68;;;;;;;;;;7382765;19;20014;-86
2022/04/09 08:14:32;;;;;;;33.42;8.63;;;;;;;;;;7388347;19;19994;-86
2022/04/09 08:16:57;;;;;;;27.52;7.22;;;;;;;;;;7385399;19;20086;-90
2022/04/09 08:19:23;;;;;;;26.23;8.00;;;;;;;;;;7386406;19;20604;-85
2022/04/09 08:21:48;;;;;;;25.52;7.35;;;;;;;;;;7381143;19;20015;-86
2022/04/09 08:24:13;;;;;;;25.48;7.20;;;;;;;;;;7385206;19;20086;-86
2022/04/09 08:26:39;;;;;;;20.23;6.85;;;;;;;;;;7386342;19;20521;-86
2022/04/09 08:29:05;;;;;;;24.23;5.60;;;;;;;;;;7388054;19;20650;-87
2022/04/09 08:31:30;;;;;;;18.30;6.15;;;;;;;;;;7379264;19;20010;-86
2022/04/09 08:33:56;;;;;;;29.02;5.85;;;;;;;;;;7386590;19;20021;-87
2022/04/09 08:36:21;;;;;;;21.50;6.13;;;;;;;;;;7386555;19;20100;-85
2022/04/09 08:38:46;;;;;;;32.63;7.28;;;;;;;;;;7382545;19;20023;-86
2022/04/09 08:41:15;;;;;;;25.33;6.30;;;;;;;;;;7387068;19;20066;-85
2022/04/09 08:43:40;;;;;;;23.48;5.53;;;;;;;;;;7388564;19;20314;-88
2022/04/09 08:46:06;;;;;;;28.85;5.88;;;;;;;;;;7384025;19;20449;-90
2022/04/09 08:48:32;;;;;;;19.85;5.47;;;;;;;;;;7385165;19;20014;-87
2022/04/09 08:50:59;;;;;;;25.85;6.22;;;;;;;;;;7387111;19;20454;-85
2022/04/09 08:53:24;;;;;;;20.83;5.50;;;;;;;;;;7382782;19;20014;-85
2022/04/09 08:55:51;;;;;;;20.08;4.47;;;;;;;;;;7385935;19;20006;-85
2022/04/09 08:58:16;;;;;;;23.80;5.55;;;;;;;;;;7386665;19;20014;-84
2022/04/09 09:00:45;;;;;;;12.88;3.92;;;;;;;;;;7386370;19;20022;-85
2022/04/09 09:03:11;;;;;;;24.92;4.20;;;;;;;;;;7382072;19;20019;-85
2022/04/09 09:05:38;;;;;;;23.33;4.63;;;;;;;;;;7386693;19;20495;-86
2022/04/09 09:08:03;;;;;;;26.98;5.05;;;;;;;;;;7378329;19;20015;-85
2022/04/09 09:10:29;;;;;;;21.50;5.05;;;;;;;;;;7385227;19;20006;-87
2022/04/09 09:12:59;;;;;;;14.85;3.75;;;;;;;;;;7382252;19;20498;-86
2022/04/09 09:15:25;;;;;;;17.65;4.90;;;;;;;;;;7383492;19;20013;-85
2022/04/09 09:17:54;;;;;;;24.75;4.90;;;;;;;;;;7381970;19;20385;-86
2022/04/09 09:20:19;;;;;;;19.73;5.20;;;;;;;;;;7386183;19;20009;-87
2022/04/09 09:22:45;;;;;;;22.05;4.88;;;;;;;;;;7382132;19;20010;-84
2022/04/09 09:25:11;;;;;;;22.85;4.97;;;;;;;;;;7384761;19;20454;-85
2022/04/09 09:27:36;;;;;;;23.08;4.97;;;;;;;;;;7384663;19;20021;-87
2022/04/09 09:30:03;;;;;;;21.92;5.00;;;;;;;;;;7386459;19;19998;-84
2022/04/09 09:32:29;;;;;;;22.40;6.40;;;;;;;;;;7381153;19;20010;-83
2022/04/09 09:34:59;;;;;;;31.33;7.57;;;;;;;;;;7385066;19;20065;-84
2022/04/09 09:37:24;;;;;;;21.63;4.07;;;;;;;;;;7376019;19;20463;-83
2022/04/09 09:39:50;;;;;;;24.27;4.63;;;;;;;;;;7385161;19;20025;-83
2022/04/09 09:42:19;;;;;;;25.88;4.57;;;;;;;;;;7383808;19;20010;-87
2022/04/09 09:44:44;;;;;;;17.83;3.95;;;;;;;;;;7385561;19;20066;-85
2022/04/09 09:47:12;;;;;;;21.73;4.30;;;;;;;;;;7381608;19;20445;-84
2022/04/09 09:49:40;;;;;;;19.80;4.00;;;;;;;;;;7385509;19;20439;-85
2022/04/09 09:52:09;;;;;;;15.35;3.20;;;;;;;;;;7382403;19;19999;-84
2022/04/09 09:54:55;;;;;;;11.82;2.85;;;;;;;;;;7383970;19;20021;-85
2022/04/09 09:57:21;;;;;;;20.27;3.17;;;;;;;;;;7382637;19;20007;-83
2022/04/09 09:59:48;;;;;;;14.02;2.97;;;;;;;;;;7382338;19;20414;-90
2022/04/09 10:02:17;;;;;;;17.60;3.22;;;;;;;;;;7380874;19;20703;-86
2022/04/09 10:04:43;;;;;;;17.08;2.92;;;;;;;;;;7377216;19;20030;-88
2022/04/09 10:07:08;;;;;;;16.42;3.65;;;;;;;;;;7377662;19;20494;-88
2022/04/09 10:09:33;;;;;;;15.55;2.97;;;;;;;;;;7380618;19;20072;-86
2022/04/09 10:11:59;;;;;;;12.60;2.40;;;;;;;;;;7381514;19;20007;-84
2022/04/09 10:14:25;;;;;;;10.65;2.63;;;;;;;;;;7383827;19;19991;-84
2022/04/09 10:16:52;;;;;;;17.08;2.42;;;;;;;;;;7384500;19;20014;-86
2022/04/09 10:19:17;;;;;;;12.55;2.58;;;;;;;;;;7376980;19;20010;-84
2022/04/09 10:21:46;;;;;;;12.82;2.90;;;;;;;;;;7379468;19;20034;-87
2022/04/09 10:24:16;;;;;;;17.67;3.58;;;;;;;;;;7382336;19;20031;-85
2022/04/09 10:26:41;;;;;;;14.40;3.45;;;;;;;;;;7382194;19;20030;-87
2022/04/09 10:29:08;;;;;;;18.15;3.30;;;;;;;;;;7384064;19;19999;-90
2022/04/09 10:31:35;;;;;;;18.60;3.40;;;;;;;;;;7380158;19;20014;-87
2022/04/09 10:34:00;;;;;;;10.82;2.75;;;;;;;;;;7380913;19;20017;-83
2022/04/09 10:36:44;;;;;;;10.70;1.77;;;;;;;;;;7384629;19;20074;-83
2022/04/09 10:39:23;;;;;;;11.75;2.20;;;;;;;;;;7381613;19;19995;-86
2022/04/09 10:41:49;;;;;;;10.60;2.00;;;;;;;;;;7382969;19;20014;-84
2022/04/09 10:44:33;;;;;;;12.93;3.17;;;;;;;;;;7383115;19;20753;-84
2022/04/09 10:47:00;;;;;;;12.57;2.78;;;;;;;;;;7379174;19;20022;-84
2022/04/09 10:49:27;;;;;;;15.70;3.22;;;;;;;;;;7378633;19;20006;-84
2022/04/09 10:52:04;;;;;;;13.20;3.10;;;;;;;;;;7379642;19;20019;-83
2022/04/09 10:54:29;;;;;;;15.85;2.08;;;;;;;;;;7382908;19;20006;-84
2022/04/09 10:56:54;;;;;;;12.63;2.63;;;;;;;;;;7379035;19;20702;-84
2022/04/09 10:59:22;;;;;;;13.75;2.65;;;;;;;;;;7379229;19;20499;-83
2022/04/09 11:01:48;;;;;;;20.02;3.92;;;;;;;;;;7379483;19;20007;-86
2022/04/09 11:04:25;;;;;;;9.10;2.38;;;;;;;;;;7351550;19;20007;-84
2022/04/09 11:07:10;;;;;;;16.08;2.63;;;;;;;;;;7368075;19;20014;-85
2022/04/09 11:09:44;;;;;;;14.27;3.50;;;;;;;;;;7376556;19;20003;-85
2022/04/09 11:12:10;;;;;;;10.32;2.40;;;;;;;;;;7372142;19;20032;-86
2022/04/09 11:14:47;;;;;;;14.05;2.55;;;;;;;;;;7371971;19;20014;-90
2022/04/09 11:17:29;;;;;;;15.20;2.92;;;;;;;;;;7377944;19;20015;-84
2022/04/09 11:19:55;;;;;;;12.07;2.45;;;;;;;;;;7382117;19;19994;-86
2022/04/09 11:22:21;;;;;;;13.15;2.50;;;;;;;;;;7377554;19;20028;-84
2022/04/09 11:24:46;;;;;;;12.20;2.25;;;;;;;;;;7385709;19;20006;-87
2022/04/09 11:27:11;;;;;;;16.13;2.05;;;;;;;;;;7379873;19;20651;-86
2022/04/09 11:29:37;;;;;;;14.38;2.50;;;;;;;;;;7385761;19;20074;-84
2022/04/09 11:32:03;;;;;;;15.10;3.05;;;;;;;;;;7382867;19;20026;-84
2022/04/09 11:34:45;;;;;;;10.90;2.88;;;;;;;;;;7387109;19;20006;-83
2022/04/09 11:37:10;;;;;;;17.27;3.13;;;;;;;;;;7379334;19;20010;-85
2022/04/09 11:39:42;;;;;;;15.27;2.85;;;;;;;;;;7383884;19;20014;-85
2022/04/09 11:42:08;;;;;;;14.73;2.42;;;;;;;;;;7384536;19;20030;-85
2022/04/09 11:44:33;;;;;;;12.07;2.22;;;;;;;;;;7387339;19;20014;-86
2022/04/09 11:47:09;;;;;;;9.85;2.70;;;;;;;;;;7383208;19;20006;-84
2022/04/09 11:49:34;;;;;;;13.73;2.70;;;;;;;;;;7383459;19;20003;-84
2022/04/09 11:51:59;;;;;;;13.60;2.35;;;;;;;;;;7378606;19;20600;-86
2022/04/09 11:54:26;;;;;;;10.25;2.03;;;;;;;;;;7383281;19;20414;-86
2022/04/09 11:56:51;;;;;;;10.52;1.77;;;;;;;;;;7384561;19;20027;-84
2022/04/09 11:59:16;;;;;;;9.15;1.60;;;;;;;;;;7385569;19;20016;-85
2022/04/09 12:01:48;;;;;;;17.25;1.70;;;;;;;;;;7377096;19;20014;-84
2022/04/09 12:04:14;;;;;;;9.48;2.10;;;;;;;;;;7386763;19;20017;-85
2022/04/09 12:06:39;;;;;;;9.60;2.03;;;;;;;;;;7381709;19;19994;-86
2022/04/09 12:09:04;;;;;;;11.32;2.03;;;;;;;;;;7384507;19;20035;-83
2022/04/09 12:11:29;;;;;;;13.98;2.28;;;;;;;;;;7377954;19;20014;-84
2022/04/09 12:13:55;;;;;;;9.43;1.90;;;;;;;;;;7385748;19;20058;-84
2022/04/09 12:16:20;;;;;;;14.50;2.27;;;;;;;;;;7385290;19;20557;-84
2022/04/09 12:18:46;;;;;;;9.23;1.95;;;;;;;;;;7382318;19;20228;-84
2022/04/09 12:21:21;;;;;;;10.57;2.58;;;;;;;;;;7380106;19;20386;-88
2022/04/09 12:23:58;;;;;;;9.75;2.20;;;;;;;;;;7379680;19;20025;-85
2022/04/09 12:26:24;;;;;;;8.43;2.08;;;;;;;;;;7378385;19;20481;-84
2022/04/09 12:29:04;;;;;;;11.07;2.33;;;;;;;;;;7385328;19;20062;-83
2022/04/09 12:31:29;;;;;;;11.15;2.05;;;;;;;;;;7378569;19;20462;-85
2022/04/09 12:33:58;;;;;;;8.20;1.77;;;;;;;;;;7384765;19;20083;-84
2022/04/09 12:36:23;;;;;;;13.45;2.47;;;;;;;;;;7385811;19;20332;-84
2022/04/09 12:38:48;;;;;;;15.32;2.40;;;;;;;;;;7379532;19;20022;-84
2022/04/09 12:41:14;;;;;;;13.57;2.25;;;;;;;;;;7377869;19;20019;-83
2022/04/09 12:43:41;;;;;;;11.73;2.13;;;;;;;;;;7384209;19;20449;-85
2022/04/09 12:46:09;;;;;;;12.98;2.90;;;;;;;;;;7382921;19;20231;-83
2022/04/09 12:48:35;;;;;;;7.28;1.70;;;;;;;;;;7379277;19;20002;-88
2022/04/09 12:51:00;;;;;;;11.70;2.20;;;;;;;;;;7377549;19;20017;-84
2022/04/09 12:53:26;;;;;;;10.13;2.53;;;;;;;;;;7381819;19;20006;-85
2022/04/09 12:55:53;;;;;;;14.33;3.13;;;;;;;;;;7382650;19;20553;-87
2022/04/09 12:58:18;;;;;;;13.05;2.25;;;;;;;;;;7384355;19;20852;-84
2022/04/09 13:00:43;;;;;;;13.63;2.60;;;;;;;;;;7379318;19;20014;-87
2022/04/09 13:03:09;;;;;;;9.47;2.07;;;;;;;;;;7386653;19;20265;-84
2022/04/09 13:05:34;;;;;;;10.63;2.30;;;;;;;;;;7384672;19;20326;-83
2022/04/09 13:08:00;;;;;;;7.25;2.00;;;;;;;;;;7374363;19;20471;-83
2022/04/09 13:10:25;;;;;;;13.07;2.63;;;;;;;;;;7381733;19;20066;-83
2022/04/09 13:12:50;;;;;;;11.00;2.10;;;;;;;;;;7384496;19;20243;-83
2022/04/09 13:15:16;;;;;;;9.90;2.13;;;;;;;;;;7379964;19;20090;-87
2022/04/09 13:17:41;;;;;;;10.68;2.45;;;;;;;;;;7383249;19;20058;-83
2022/04/09 13:20:07;;;;;;;10.90;2.40;;;;;;;;;;7385750;19;20010;-85
2022/04/09 13:22:32;;;;;;;11.10;2.15;;;;;;;;;;7377879;19;20003;-86
2022/04/09 13:24:58;;;;;;;9.73;2.15;;;;;;;;;;7386021;19;20045;-83
2022/04/09 13:27:23;;;;;;;9.60;1.90;;;;;;;;;;7384583;19;20058;-83
2022/04/09 13:29:48;;;;;;;9.32;1.85;;;;;;;;;;7384263;19;20024;-88
2022/04/09 13:32:13;;;;;;;7.20;2.05;;;;;;;;;;7384408;19;20270;-85
2022/04/09 13:34:39;;;;;;;9.33;2.47;;;;;;;;;;7384538;19;20092;-87
2022/04/09 13:37:04;;;;;;;12.82;2.25;;;;;;;;;;7378141;19;20243;-83
2022/04/09 13:39:29;;;;;;;9.45;2.03;;;;;;;;;;7384478;19;20014;-83
2022/04/09 13:41:55;;;;;;;12.23;2.85;;;;;;;;;;7380176;19;20416;-86
2022/04/09 13:44:20;;;;;;;9.27;2.22;;;;;;;;;;7382771;19;20029;-85
2022/04/09 13:46:45;;;;;;;10.87;2.13;;;;;;;;;;7381345;19;20014;-85
2022/04/09 13:49:10;;;;;;;12.55;3.20;;;;;;;;;;7383199;19;20326;-84
2022/04/09 13:51:36;;;;;;;9.55;2.17;;;;;;;;;;7382107;19;20477;-85
2022/04/09 13:54:01;;;;;;;5.63;1.60;;;;;;;;;;7384360;19;20003;-85
2022/04/09 13:56:26;;;;;;;8.55;1.80;;;;;;;;;;7384303;19;20255;-84
2022/04/09 13:58:51;;;;;;;8.95;2.20;;;;;;;;;;7383577;19;19995;-87
2022/04/09 14:01:17;;;;;;;7.07;2.00;;;;;;;;;;7379074;19;20126;-84
2022/04/09 14:03:42;;;;;;;8.45;1.88;;;;;;;;;;7383589;19;19998;-84
2022/04/09 14:06:07;;;;;;;10.88;2.00;;;;;;;;;;7383443;19;20010;-84
2022/04/09 14:08:32;;;;;;;11.88;2.05;;;;;;;;;;7376672;19;20005;-86
2022/04/09 14:10:58;;;;;;;7.13;1.93;;;;;;;;;;7383069;19;20015;-83
2022/04/09 14:13:23;;;;;;;8.85;1.63;;;;;;;;;;7384859;19;20329;-84
2022/04/09 14:15:49;;;;;;;7.15;1.70;;;;;;;;;;7379209;19;20365;-84
2022/04/09 14:18:14;;;;;;;6.38;1.88;;;;;;;;;;7383389;19;20002;-82